createdAt,value
2018-07-22T00:00:29.313Z,19.91
2018-07-22T00:01:29.634Z,19.92
2018-07-22T00:02:28.761Z,19.92
2018-07-22T00:03:29.012Z,19.91
2018-07-22T00:04:52.631Z,19.92
2018-07-22T00:05:53.004Z,19.94
2018-07-22T00:06:53.497Z,19.94
2018-07-22T00:07:53.293Z,19.95
2018-07-22T00:08:52.821Z,19.99
2018-07-22T00:09:53.282Z,19.96
2018-07-22T00:10:53.554Z,19.94
2018-07-22T00:11:52.880Z,19.95
2018-07-22T00:13:16.244Z,19.94
2018-07-22T00:15:02.951Z,19.94
2018-07-22T00:16:03.463Z,19.94
2018-07-22T00:17:03.794Z,19.95
2018-07-22T00:18:03.110Z,19.96
2018-07-22T00:19:03.683Z,19.96
2018-07-22T00:20:04.170Z,19.99
2018-07-22T00:21:03.531Z,19.99
2018-07-22T00:22:03.307Z,19.96
2018-07-22T00:23:03.430Z,19.99
2018-07-22T00:24:03.486Z,20.00
2018-07-22T00:25:50.807Z,19.99
2018-07-22T00:26:50.933Z,19.99
2018-07-22T00:27:51.103Z,19.99
2018-07-22T00:28:52.393Z,20.00
2018-07-22T00:29:51.627Z,19.96
2018-07-22T00:30:51.064Z,19.96
2018-07-22T00:31:51.276Z,19.96
2018-07-22T00:32:51.520Z,19.95
2018-07-22T00:33:50.908Z,19.95
2018-07-22T00:34:51.285Z,19.94
2018-07-22T00:35:51.717Z,19.92
2018-07-22T00:36:50.877Z,19.91
2018-07-22T00:37:51.172Z,19.91
2018-07-22T00:38:51.580Z,19.88
2018-07-22T00:39:50.821Z,19.86
2018-07-22T00:40:51.152Z,19.85
2018-07-22T00:41:51.544Z,19.85
2018-07-22T00:43:14.104Z,19.82
2018-07-22T00:44:14.432Z,19.79
2018-07-22T00:45:37.939Z,19.77
2018-07-22T00:46:38.267Z,19.76
2018-07-22T00:47:38.642Z,19.73
2018-07-22T00:48:37.916Z,19.71
2018-07-22T00:49:38.120Z,19.70
2018-07-22T00:50:51.185Z,19.69
2018-07-22T00:52:14.546Z,19.67
2018-07-22T00:53:37.734Z,19.67
2018-07-22T00:54:37.940Z,19.67
2018-07-22T00:55:38.260Z,19.64
2018-07-22T00:56:38.591Z,19.63
2018-07-22T00:57:38.722Z,19.63
2018-07-22T00:58:47.144Z,19.64
2018-07-22T01:00:07.479Z,19.63
2018-07-22T01:01:07.740Z,19.62
2018-07-22T01:02:08.099Z,19.59
2018-07-22T01:03:30.542Z,19.59
2018-07-22T01:04:30.780Z,19.56
2018-07-22T01:05:31.026Z,19.54
2018-07-22T01:06:31.395Z,19.51
2018-07-22T01:07:53.300Z,19.52
2018-07-22T01:08:53.589Z,19.52
2018-07-22T01:09:53.999Z,19.52
2018-07-22T01:10:54.439Z,19.52
2018-07-22T01:11:53.681Z,19.52
2018-07-22T01:12:54.088Z,19.51
2018-07-22T01:13:54.319Z,19.51
2018-07-22T01:14:54.078Z,19.49
2018-07-22T01:15:54.451Z,19.47
2018-07-22T01:16:53.743Z,19.47
2018-07-22T01:17:53.858Z,19.41
2018-07-22T01:18:53.977Z,19.41
2018-07-22T01:19:54.443Z,19.44
2018-07-22T01:21:13.416Z,19.40
2018-07-22T01:22:13.129Z,19.39
2018-07-22T01:23:15.376Z,19.40
2018-07-22T01:24:38.573Z,19.37
2018-07-22T01:25:39.027Z,19.36
2018-07-22T01:26:39.260Z,19.36
2018-07-22T01:27:38.419Z,19.34
2018-07-22T01:28:38.792Z,19.31
2018-07-22T01:30:02.383Z,19.29
2018-07-22T01:31:25.689Z,19.27
2018-07-22T01:32:25.933Z,19.27
2018-07-22T01:33:25.243Z,19.26
2018-07-22T01:34:26.414Z,19.22
2018-07-22T01:35:25.609Z,19.21
2018-07-22T01:36:25.892Z,19.16
2018-07-22T01:37:26.148Z,19.15
2018-07-22T01:38:26.424Z,19.14
2018-07-22T01:39:25.561Z,19.12
2018-07-22T01:40:25.677Z,19.14
2018-07-22T01:41:47.527Z,19.14
2018-07-22T01:42:48.792Z,19.09
2018-07-22T01:43:47.946Z,19.08
2018-07-22T01:44:48.317Z,19.04
2018-07-22T01:45:48.673Z,19.02
2018-07-22T01:46:47.874Z,19.04
2018-07-22T01:47:48.291Z,19.02
2018-07-22T01:48:48.672Z,19.02
2018-07-22T01:49:47.761Z,19.02
2018-07-22T01:50:48.086Z,18.99
2018-07-22T01:51:48.365Z,18.96
2018-07-22T01:52:48.851Z,18.95
2018-07-22T01:53:48.039Z,18.92
2018-07-22T01:54:48.378Z,18.89
2018-07-22T01:55:48.735Z,18.86
2018-07-22T01:56:48.051Z,18.83
2018-07-22T01:57:48.292Z,18.81
2018-07-22T01:58:48.536Z,18.81
2018-07-22T01:59:47.858Z,18.81
2018-07-22T02:00:48.131Z,18.77
2018-07-22T02:02:11.377Z,18.75
2018-07-22T02:03:11.618Z,18.71
2018-07-22T02:04:32.633Z,18.68
2018-07-22T02:05:32.973Z,18.70
2018-07-22T02:06:33.254Z,18.68
2018-07-22T02:07:33.723Z,18.65
2018-07-22T02:08:33.052Z,18.65
2018-07-22T02:09:33.494Z,18.63
2018-07-22T02:10:55.841Z,18.63
2018-07-22T02:11:56.127Z,18.62
2018-07-22T02:13:19.801Z,18.60
2018-07-22T02:14:20.336Z,18.59
2018-07-22T02:15:43.768Z,18.56
2018-07-22T02:16:44.127Z,18.56
2018-07-22T02:17:44.421Z,18.55
2018-07-22T02:18:44.579Z,18.52
2018-07-22T02:19:43.895Z,18.49
2018-07-22T02:20:44.223Z,18.45
2018-07-22T02:21:44.653Z,18.44
2018-07-22T02:22:44.015Z,18.44
2018-07-22T02:23:44.299Z,18.43
2018-07-22T02:24:44.546Z,18.41
2018-07-22T02:25:43.816Z,18.43
2018-07-22T02:26:44.061Z,18.41
2018-07-22T02:28:30.814Z,18.38
2018-07-22T02:29:31.221Z,18.34
2018-07-22T02:30:31.575Z,18.34
2018-07-22T02:31:30.939Z,18.35
2018-07-22T02:32:31.261Z,18.33
2018-07-22T02:33:31.625Z,18.31
2018-07-22T02:34:30.973Z,18.33
2018-07-22T02:35:31.338Z,18.34
2018-07-22T02:36:31.591Z,18.34
2018-07-22T02:37:30.901Z,18.35
2018-07-22T02:38:31.195Z,18.34
2018-07-22T02:39:31.197Z,18.33
2018-07-22T02:40:31.435Z,18.33
2018-07-22T02:41:31.714Z,18.28
2018-07-22T02:42:30.995Z,18.26
2018-07-22T02:43:31.076Z,18.25
2018-07-22T02:44:54.069Z,18.26
2018-07-22T02:46:17.458Z,18.22
2018-07-22T02:47:17.667Z,18.23
2018-07-22T02:48:17.902Z,18.23
2018-07-22T02:49:18.142Z,18.25
2018-07-22T02:50:17.506Z,18.25
2018-07-22T02:51:40.820Z,18.23
2018-07-22T02:52:41.063Z,18.22
2018-07-22T02:53:41.179Z,18.20
2018-07-22T02:54:41.298Z,18.20
2018-07-22T02:55:41.536Z,18.19
2018-07-22T02:56:41.700Z,18.18
2018-07-22T02:57:41.192Z,18.18
2018-07-22T02:58:41.515Z,18.16
2018-07-22T02:59:40.822Z,18.13
2018-07-22T03:00:41.274Z,18.11
2018-07-22T03:02:04.869Z,18.11
2018-07-22T03:03:05.114Z,18.11
2018-07-22T03:04:05.623Z,18.10
2018-07-22T03:05:04.740Z,18.08
2018-07-22T03:06:04.904Z,18.04
2018-07-22T03:07:05.390Z,18.03
2018-07-22T03:08:04.880Z,18.00
2018-07-22T03:09:05.240Z,18.00
2018-07-22T03:10:05.640Z,17.97
2018-07-22T03:11:04.866Z,17.95
2018-07-22T03:12:05.321Z,17.92
2018-07-22T03:13:05.693Z,17.92
2018-07-22T03:14:04.894Z,17.89
2018-07-22T03:15:28.609Z,17.86
2018-07-22T03:16:29.004Z,17.85
2018-07-22T03:17:52.276Z,17.82
2018-07-22T03:18:52.482Z,17.83
2018-07-22T03:19:52.806Z,17.79
2018-07-22T03:20:53.001Z,17.76
2018-07-22T03:21:52.363Z,17.74
2018-07-22T03:22:52.763Z,17.74
2018-07-22T03:23:53.243Z,17.72
2018-07-22T03:24:52.572Z,17.72
2018-07-22T03:25:53.093Z,17.70
2018-07-22T03:26:52.497Z,17.68
2018-07-22T03:28:15.964Z,17.64
2018-07-22T03:29:16.484Z,17.60
2018-07-22T03:30:16.890Z,17.63
2018-07-22T03:31:16.206Z,17.60
2018-07-22T03:32:39.847Z,17.54
2018-07-22T03:33:40.371Z,17.52
2018-07-22T03:34:40.817Z,17.54
2018-07-22T03:35:42.053Z,17.54
2018-07-22T03:36:40.335Z,17.54
2018-07-22T03:37:40.579Z,17.51
2018-07-22T03:38:40.136Z,17.46
2018-07-22T03:39:40.744Z,17.44
2018-07-22T03:40:40.294Z,17.41
2018-07-22T03:41:40.823Z,17.42
2018-07-22T03:42:40.346Z,17.44
2018-07-22T03:43:40.590Z,17.42
2018-07-22T03:45:03.063Z,17.44
2018-07-22T03:46:03.386Z,17.42
2018-07-22T03:47:03.743Z,17.41
2018-07-22T03:48:03.224Z,17.39
2018-07-22T03:49:03.628Z,17.41
2018-07-22T03:50:03.985Z,17.39
2018-07-22T03:51:03.426Z,17.39
2018-07-22T03:52:03.669Z,17.36
2018-07-22T03:53:03.062Z,17.31
2018-07-22T03:54:03.225Z,17.29
2018-07-22T03:55:03.780Z,17.27
2018-07-22T03:56:03.512Z,17.26
2018-07-22T03:57:03.154Z,17.27
2018-07-22T03:58:03.600Z,17.26
2018-07-22T03:59:03.195Z,17.24
2018-07-22T04:00:03.550Z,17.22
2018-07-22T04:01:04.035Z,17.22
2018-07-22T04:02:03.546Z,17.23
2018-07-22T04:03:03.963Z,17.23
2018-07-22T04:04:03.611Z,17.24
2018-07-22T04:05:04.057Z,17.29
2018-07-22T04:06:03.622Z,17.27
2018-07-22T04:07:03.177Z,17.27
2018-07-22T04:08:03.656Z,17.29
2018-07-22T04:09:03.222Z,17.26
2018-07-22T04:10:03.741Z,17.24
2018-07-22T04:11:03.264Z,17.23
2018-07-22T04:12:03.589Z,17.22
2018-07-22T04:13:03.097Z,17.22
2018-07-22T04:14:03.667Z,17.20
2018-07-22T04:15:03.267Z,17.20
2018-07-22T04:16:03.996Z,17.20
2018-07-22T04:17:05.071Z,17.23
2018-07-22T04:18:03.681Z,17.26
2018-07-22T04:19:03.194Z,17.27
2018-07-22T04:20:03.790Z,17.31
2018-07-22T04:21:03.310Z,17.33
2018-07-22T04:22:03.789Z,17.33
2018-07-22T04:23:03.390Z,17.31
2018-07-22T04:24:04.116Z,17.30
2018-07-22T04:25:27.074Z,17.30
2018-07-22T04:26:28.918Z,17.29
2018-07-22T04:27:28.237Z,17.29
2018-07-22T04:28:27.520Z,17.29
2018-07-22T04:29:51.791Z,17.26
2018-07-22T04:31:15.994Z,17.23
2018-07-22T04:32:16.733Z,17.23
2018-07-22T04:33:17.617Z,17.24
2018-07-22T04:34:16.316Z,17.23
2018-07-22T04:35:16.591Z,17.27
2018-07-22T04:36:39.313Z,17.30
2018-07-22T04:37:39.678Z,17.33
2018-07-22T04:38:40.818Z,17.33
2018-07-22T04:39:39.846Z,17.34
2018-07-22T04:40:39.472Z,17.34
2018-07-22T04:41:40.045Z,17.38
2018-07-22T04:42:39.369Z,17.42
2018-07-22T04:43:40.016Z,17.45
2018-07-22T04:44:39.533Z,17.49
2018-07-22T04:45:39.892Z,17.54
2018-07-22T04:46:39.380Z,17.60
2018-07-22T04:47:39.666Z,17.65
2018-07-22T04:48:40.162Z,17.68
2018-07-22T04:49:39.745Z,17.71
2018-07-22T04:50:40.315Z,17.76
2018-07-22T04:51:39.996Z,17.74
2018-07-22T04:52:39.549Z,17.72
2018-07-22T04:53:39.901Z,17.71
2018-07-22T04:54:39.365Z,17.79
2018-07-22T04:55:39.954Z,17.89
2018-07-22T04:57:03.437Z,17.98
2018-07-22T04:58:04.084Z,18.08
2018-07-22T04:59:03.643Z,18.18
2018-07-22T05:00:08.014Z,18.25
2018-07-22T05:01:03.520Z,18.33
2018-07-22T05:02:03.802Z,18.38
2018-07-22T05:03:27.320Z,18.37
2018-07-22T05:04:27.685Z,18.31
2018-07-22T05:05:28.046Z,18.29
2018-07-22T05:06:50.677Z,18.33
2018-07-22T05:07:50.970Z,18.34
2018-07-22T05:08:51.612Z,18.33
2018-07-22T05:09:51.251Z,18.28
2018-07-22T05:10:50.900Z,18.25
2018-07-22T05:12:14.425Z,18.26
2018-07-22T05:13:14.742Z,18.29
2018-07-22T05:15:01.640Z,18.26
2018-07-22T05:16:02.012Z,18.26
2018-07-22T05:17:02.274Z,18.29
2018-07-22T05:18:01.607Z,18.31
2018-07-22T05:19:01.934Z,18.33
2018-07-22T05:20:02.417Z,18.35
2018-07-22T05:21:25.231Z,18.40
2018-07-22T05:22:25.799Z,18.43
2018-07-22T05:23:25.082Z,18.44
2018-07-22T05:24:25.466Z,18.49
2018-07-22T05:25:25.811Z,18.55
2018-07-22T05:26:25.252Z,18.55
2018-07-22T05:27:25.540Z,18.56
2018-07-22T05:28:26.092Z,18.60
2018-07-22T05:29:25.378Z,18.65
2018-07-22T05:30:49.152Z,18.73
2018-07-22T05:31:49.569Z,18.80
2018-07-22T05:32:50.185Z,18.90
2018-07-22T05:33:49.423Z,18.99
2018-07-22T05:34:49.949Z,19.14
2018-07-22T05:35:49.624Z,19.29
2018-07-22T05:36:49.311Z,19.41
2018-07-22T05:37:49.904Z,19.52
2018-07-22T05:38:49.190Z,19.52
2018-07-22T05:39:49.710Z,19.58
2018-07-22T05:41:59.612Z,19.79
2018-07-22T05:43:00.026Z,19.76
2018-07-22T05:43:59.611Z,19.84
2018-07-22T05:45:00.258Z,19.92
2018-07-22T05:45:59.781Z,20.06
2018-07-22T05:47:00.137Z,20.11
2018-07-22T05:47:59.583Z,20.18
2018-07-22T05:49:00.356Z,20.29
2018-07-22T05:49:59.797Z,20.40
2018-07-22T05:51:00.477Z,20.47
2018-07-22T05:52:23.514Z,20.59
2018-07-22T05:53:23.963Z,20.62
2018-07-22T05:54:23.514Z,20.66
2018-07-22T05:55:24.233Z,20.66
2018-07-22T05:56:46.916Z,20.65
2018-07-22T05:57:47.515Z,20.63
2018-07-22T05:58:47.100Z,20.66
2018-07-22T05:59:47.791Z,20.67
2018-07-22T06:01:10.906Z,20.72
2018-07-22T06:02:34.731Z,20.72
2018-07-22T06:03:35.235Z,20.78
2018-07-22T06:04:34.739Z,20.90
2018-07-22T06:05:35.223Z,20.99
2018-07-22T06:06:34.667Z,21.09
2018-07-22T06:07:35.231Z,21.22
2018-07-22T06:08:34.759Z,21.36
2018-07-22T06:09:58.589Z,21.52
2018-07-22T06:10:59.073Z,21.61
2018-07-22T06:11:59.640Z,21.73
2018-07-22T06:12:59.106Z,21.83
2018-07-22T06:14:23.066Z,21.99
2018-07-22T06:15:23.506Z,22.14
2018-07-22T06:16:46.344Z,22.36
2018-07-22T06:17:46.980Z,22.50
2018-07-22T06:18:46.536Z,22.48
2018-07-22T06:19:46.943Z,22.60
2018-07-22T06:20:46.583Z,22.57
2018-07-22T06:21:46.938Z,22.66
2018-07-22T06:23:10.740Z,22.91
2018-07-22T06:24:11.228Z,23.21
2018-07-22T06:25:10.782Z,23.43
2018-07-22T06:26:11.348Z,23.58
2018-07-22T06:27:11.237Z,23.78
2018-07-22T06:28:11.956Z,23.88
2018-07-22T06:29:11.587Z,23.99
2018-07-22T06:30:11.915Z,24.10
2018-07-22T06:31:11.567Z,24.23
2018-07-22T06:32:11.962Z,24.35
2018-07-22T06:33:38.074Z,24.53
2018-07-22T06:35:03.236Z,24.70
2018-07-22T06:36:02.596Z,24.92
2018-07-22T06:37:03.110Z,25.13
2018-07-22T06:38:02.551Z,25.23
2018-07-22T06:39:03.364Z,25.29
2018-07-22T06:40:02.718Z,25.44
2018-07-22T06:41:03.150Z,25.65
2018-07-22T06:42:02.644Z,25.70
2018-07-22T06:43:03.130Z,25.84
2018-07-22T06:44:25.563Z,26.15
2018-07-22T06:45:25.997Z,26.23
2018-07-22T06:46:26.224Z,26.31
2018-07-22T06:47:25.784Z,26.37
2018-07-22T06:48:26.224Z,26.55
2018-07-22T06:49:26.618Z,26.73
2018-07-22T06:50:26.024Z,26.78
2018-07-22T06:51:49.854Z,26.93
2018-07-22T06:52:50.377Z,27.05
2018-07-22T06:53:49.943Z,26.96
2018-07-22T06:55:13.736Z,27.03
2018-07-22T06:56:14.302Z,27.17
2018-07-22T06:57:13.968Z,27.29
2018-07-22T06:58:14.473Z,27.22
2018-07-22T06:59:13.937Z,27.12
2018-07-22T07:00:38.005Z,27.14
2018-07-22T07:01:38.729Z,27.12
2018-07-22T07:02:38.425Z,27.21
2018-07-22T07:04:01.576Z,27.40
2018-07-22T07:05:02.308Z,27.47
2018-07-22T07:06:02.006Z,27.65
2018-07-22T07:07:01.735Z,27.83
2018-07-22T07:08:02.219Z,27.90
2018-07-22T07:09:01.935Z,28.01
2018-07-22T07:10:01.618Z,28.27
2018-07-22T07:11:25.908Z,28.44
2018-07-22T07:12:26.609Z,28.41
2018-07-22T07:13:26.175Z,28.54
2018-07-22T07:14:25.699Z,28.59
2018-07-22T07:15:26.338Z,28.56
2018-07-22T07:16:25.934Z,28.42
2018-07-22T07:17:27.140Z,28.41
2018-07-22T07:18:26.421Z,28.45
2018-07-22T07:19:25.939Z,28.51
2018-07-22T07:20:49.835Z,28.76
2018-07-22T07:21:50.210Z,29.08
2018-07-22T07:22:50.938Z,29.27
2018-07-22T07:23:50.528Z,29.29
2018-07-22T07:24:50.564Z,29.49
2018-07-22T07:25:50.181Z,29.38
2018-07-22T07:26:50.698Z,29.36
2018-07-22T07:27:50.426Z,29.34
2018-07-22T07:28:50.829Z,29.47
2018-07-22T07:29:50.390Z,29.60
2018-07-22T07:31:07.766Z,29.68
2018-07-22T07:32:08.020Z,29.78
2018-07-22T07:33:09.419Z,29.79
2018-07-22T07:34:09.668Z,29.93
2018-07-22T07:35:10.305Z,30.06
2018-07-22T07:36:09.696Z,29.79
2018-07-22T07:37:09.290Z,29.59
2018-07-22T07:38:09.595Z,29.63
2018-07-22T07:39:09.224Z,29.53
2018-07-22T07:40:09.792Z,29.44
2018-07-22T07:41:32.747Z,29.59
2018-07-22T07:42:55.932Z,29.87
2018-07-22T07:43:56.579Z,30.09
2018-07-22T07:44:54.832Z,30.30
2018-07-22T07:45:54.718Z,30.53
2018-07-22T07:46:55.795Z,30.65
2018-07-22T07:48:19.427Z,30.80
2018-07-22T07:49:20.020Z,30.90
2018-07-22T07:50:19.963Z,30.97
2018-07-22T07:51:43.206Z,31.18
2018-07-22T07:52:43.910Z,31.17
2018-07-22T07:53:43.665Z,31.14
2018-07-22T07:54:44.146Z,31.03
2018-07-22T07:55:43.749Z,31.27
2018-07-22T07:56:44.345Z,31.47
2018-07-22T07:58:07.028Z,31.71
2018-07-22T07:59:07.672Z,31.77
2018-07-22T08:00:07.305Z,31.47
2018-07-22T08:01:07.654Z,31.21
2018-07-22T08:02:30.657Z,31.15
2018-07-22T08:03:30.873Z,31.24
2018-07-22T08:04:31.740Z,31.51
2018-07-22T08:05:31.209Z,31.80
2018-07-22T08:06:30.868Z,32.09
2018-07-22T08:07:31.632Z,32.19
2018-07-22T08:08:31.756Z,32.01
2018-07-22T08:10:02.602Z,31.81
2018-07-22T08:11:03.114Z,31.93
2018-07-22T08:12:02.723Z,32.11
2018-07-22T08:13:03.120Z,32.14
2018-07-22T08:14:02.570Z,32.19
2018-07-22T08:15:02.977Z,32.31
2018-07-22T08:16:27.211Z,32.37
2018-07-22T08:17:27.594Z,32.43
2018-07-22T08:18:28.064Z,32.56
2018-07-22T08:19:27.514Z,32.41
2018-07-22T08:20:27.957Z,32.14
2018-07-22T08:21:27.195Z,31.89
2018-07-22T08:22:27.560Z,31.78
2018-07-22T08:23:28.065Z,32.08
2018-07-22T08:24:28.110Z,32.29
2018-07-22T08:25:27.477Z,32.56
2018-07-22T08:26:50.759Z,32.85
2018-07-22T08:27:50.568Z,32.87
2018-07-22T08:28:51.054Z,32.90
2018-07-22T08:29:51.381Z,32.77
2018-07-22T08:31:16.478Z,32.74
2018-07-22T08:32:16.757Z,32.75
2018-07-22T08:33:17.602Z,32.74
2018-07-22T08:34:42.004Z,32.43
2018-07-22T08:35:42.497Z,32.40
2018-07-22T08:36:43.065Z,32.63
2018-07-22T08:38:05.536Z,32.86
2018-07-22T08:39:55.857Z,33.04
2018-07-22T08:40:55.942Z,32.97
2018-07-22T08:41:56.182Z,33.09
2018-07-22T08:42:57.197Z,33.40
2018-07-22T08:43:56.558Z,33.73
2018-07-22T08:45:19.599Z,33.87
2018-07-22T08:46:20.026Z,33.77
2018-07-22T08:47:19.956Z,33.58
2018-07-22T08:48:20.043Z,33.59
2018-07-22T08:49:20.811Z,33.61
2018-07-22T08:50:20.133Z,33.71
2018-07-22T08:51:43.697Z,33.90
2018-07-22T08:52:43.809Z,33.84
2018-07-22T08:53:44.143Z,33.79
2018-07-22T08:54:45.393Z,33.76
2018-07-22T08:55:43.629Z,33.76
2018-07-22T08:56:43.988Z,33.76
2018-07-22T08:57:44.558Z,33.92
2018-07-22T08:58:43.894Z,34.01
2018-07-22T08:59:45.229Z,34.18
2018-07-22T09:00:44.788Z,34.38
2018-07-22T09:01:44.235Z,34.42
2018-07-22T09:02:43.820Z,34.64
2018-07-22T09:03:44.281Z,34.93
2018-07-22T09:04:43.841Z,35.04
2018-07-22T09:05:44.373Z,35.14
2018-07-22T09:06:43.656Z,34.99
2018-07-22T09:07:43.040Z,34.78
2018-07-22T09:09:08.638Z,34.90
2018-07-22T09:10:08.895Z,35.08
2018-07-22T09:11:09.434Z,35.02
2018-07-22T09:12:09.685Z,34.96
2018-07-22T09:13:09.764Z,35.00
2018-07-22T09:15:19.925Z,34.66
2018-07-22T09:16:19.805Z,34.78
2018-07-22T09:17:19.370Z,34.95
2018-07-22T09:18:17.496Z,35.07
2018-07-22T09:19:18.475Z,35.11
2018-07-22T09:20:17.603Z,35.19
2018-07-22T09:21:18.989Z,35.27
2018-07-22T09:22:19.319Z,35.44
2018-07-22T09:23:18.591Z,35.29
2018-07-22T09:24:18.969Z,35.18
2018-07-22T09:25:19.383Z,34.95
2018-07-22T09:26:18.555Z,34.89
2018-07-22T09:27:19.116Z,35.08
2018-07-22T09:28:17.482Z,35.24
2018-07-22T09:29:17.446Z,35.53
2018-07-22T09:30:17.770Z,35.53
2018-07-22T09:31:18.073Z,35.34
2018-07-22T09:32:41.609Z,35.27
2018-07-22T09:33:42.720Z,35.51
2018-07-22T09:34:41.694Z,35.56
2018-07-22T09:36:37.547Z,36.05
2018-07-22T09:37:38.580Z,36.16
2018-07-22T09:38:37.934Z,36.21
2018-07-22T09:39:38.220Z,35.88
2018-07-22T09:40:37.772Z,35.70
2018-07-22T09:41:38.469Z,35.64
2018-07-22T09:42:37.950Z,35.58
2018-07-22T09:43:38.399Z,35.80
2018-07-22T09:44:37.794Z,36.09
2018-07-22T09:46:03.391Z,36.17
2018-07-22T09:47:27.271Z,36.07
2018-07-22T09:48:27.711Z,36.12
2018-07-22T09:49:27.347Z,35.90
2018-07-22T09:50:27.767Z,35.85
2018-07-22T09:51:27.323Z,36.05
2018-07-22T09:52:28.290Z,36.39
2018-07-22T09:53:27.657Z,36.54
2018-07-22T09:54:27.342Z,36.64
2018-07-22T09:55:51.036Z,36.84
2018-07-22T09:56:51.455Z,36.72
2018-07-22T09:57:52.105Z,36.52
2018-07-22T09:58:51.556Z,36.01
2018-07-22T09:59:52.030Z,35.71
2018-07-22T10:00:51.477Z,35.53
2018-07-22T10:01:51.967Z,35.44
2018-07-22T10:02:51.600Z,35.29
2018-07-22T10:03:51.092Z,35.10
2018-07-22T10:04:51.751Z,35.14
2018-07-22T10:05:51.367Z,35.42
2018-07-22T10:06:51.901Z,35.73
2018-07-22T10:07:51.412Z,36.20
2018-07-22T10:08:51.819Z,36.51
2018-07-22T10:09:52.168Z,36.62
2018-07-22T10:10:51.616Z,36.42
2018-07-22T10:11:51.972Z,36.08
2018-07-22T10:12:51.841Z,35.80
2018-07-22T10:13:51.289Z,35.97
2018-07-22T10:14:51.901Z,36.47
2018-07-22T10:15:51.332Z,36.64
2018-07-22T10:16:51.778Z,36.93
2018-07-22T10:17:53.273Z,37.14
2018-07-22T10:18:54.645Z,37.28
2018-07-22T10:19:52.971Z,37.40
2018-07-22T10:20:53.414Z,37.86
2018-07-22T10:21:52.246Z,38.17
2018-07-22T10:22:51.935Z,38.38
2018-07-22T10:23:51.239Z,38.34
2018-07-22T10:25:17.606Z,38.50
2018-07-22T10:26:42.850Z,38.58
2018-07-22T10:27:43.529Z,38.64
2018-07-22T10:28:43.137Z,38.48
2018-07-22T10:29:43.911Z,38.38
2018-07-22T10:30:43.192Z,38.11
2018-07-22T10:31:43.360Z,38.17
2018-07-22T10:32:43.559Z,38.12
2018-07-22T10:33:42.923Z,37.93
2018-07-22T10:34:43.811Z,37.83
2018-07-22T10:35:43.979Z,37.59
2018-07-22T10:36:43.453Z,37.56
2018-07-22T10:37:43.499Z,37.70
2018-07-22T10:38:42.897Z,37.93
2018-07-22T10:39:43.830Z,37.89
2018-07-22T10:40:43.476Z,37.70
2018-07-22T10:41:42.951Z,37.33
2018-07-22T10:42:43.361Z,37.26
2018-07-22T10:43:43.449Z,37.01
2018-07-22T10:44:43.168Z,36.37
2018-07-22T10:45:42.887Z,35.90
2018-07-22T10:46:43.619Z,35.80
2018-07-22T10:47:43.182Z,35.46
2018-07-22T10:48:42.781Z,35.17
2018-07-22T10:49:43.264Z,35.18
2018-07-22T10:50:42.807Z,35.23
2018-07-22T10:52:55.210Z,35.67
2018-07-22T10:53:55.412Z,35.98
2018-07-22T10:54:55.530Z,35.95
2018-07-22T10:55:54.864Z,36.17
2018-07-22T10:56:54.489Z,36.25
2018-07-22T10:57:54.976Z,36.46
2018-07-22T10:58:54.503Z,36.81
2018-07-22T10:59:54.832Z,37.03
2018-07-22T11:00:55.305Z,37.32
2018-07-22T11:01:55.476Z,37.45
2018-07-22T11:03:19.490Z,37.56
2018-07-22T11:04:19.996Z,37.82
2018-07-22T11:05:19.763Z,38.09
2018-07-22T11:06:20.893Z,38.27
2018-07-22T11:07:20.289Z,38.01
2018-07-22T11:08:19.654Z,37.60
2018-07-22T11:09:20.301Z,37.28
2018-07-22T11:10:20.406Z,37.40
2018-07-22T11:11:43.019Z,37.33
2018-07-22T11:12:43.381Z,37.63
2018-07-22T11:13:43.929Z,37.65
2018-07-22T11:14:43.937Z,37.49
2018-07-22T11:15:43.601Z,37.63
2018-07-22T11:17:07.602Z,37.94
2018-07-22T11:18:07.078Z,38.09
2018-07-22T11:19:06.515Z,37.51
2018-07-22T11:20:08.603Z,37.17
2018-07-22T11:21:08.348Z,37.02
2018-07-22T11:22:07.015Z,36.62
2018-07-22T11:23:06.499Z,36.43
2018-07-22T11:24:06.941Z,36.49
2018-07-22T11:25:07.297Z,36.67
2018-07-22T11:26:07.145Z,36.86
2018-07-22T11:27:06.643Z,37.03
2018-07-22T11:28:07.684Z,36.91
2018-07-22T11:29:07.187Z,37.10
2018-07-22T11:30:06.931Z,37.28
2018-07-22T11:31:06.622Z,37.45
2018-07-22T11:32:07.210Z,37.49
2018-07-22T11:33:06.708Z,37.35
2018-07-22T11:34:35.138Z,37.33
2018-07-22T11:35:57.440Z,36.76
2018-07-22T11:37:20.300Z,36.14
2018-07-22T11:38:20.818Z,35.93
2018-07-22T11:39:21.353Z,35.79
2018-07-22T11:40:44.497Z,35.34
2018-07-22T11:41:45.026Z,35.04
2018-07-22T11:42:45.628Z,34.60
2018-07-22T11:43:45.388Z,34.81
2018-07-22T11:45:08.099Z,34.43
2018-07-22T11:46:08.562Z,34.13
2018-07-22T11:47:08.278Z,33.30
2018-07-22T11:48:08.811Z,32.93
2018-07-22T11:49:08.445Z,33.00
2018-07-22T11:50:08.929Z,33.34
2018-07-22T11:51:08.341Z,33.71
2018-07-22T11:52:08.861Z,33.96
2018-07-22T11:53:08.298Z,33.96
2018-07-22T11:54:32.453Z,33.80
2018-07-22T11:55:56.738Z,33.31
2018-07-22T11:56:56.201Z,32.97
2018-07-22T11:58:43.849Z,32.85
2018-07-22T11:59:44.749Z,32.70
2018-07-22T12:00:44.240Z,32.40
2018-07-22T12:01:43.847Z,32.26
2018-07-22T12:03:09.400Z,32.21
2018-07-22T12:04:10.014Z,32.18
2018-07-22T12:05:09.576Z,32.37
2018-07-22T12:06:10.103Z,32.85
2018-07-22T12:07:10.175Z,33.19
2018-07-22T12:08:09.733Z,32.90
2018-07-22T12:09:10.699Z,32.68
2018-07-22T12:10:10.820Z,32.43
2018-07-22T12:11:10.347Z,32.77
2018-07-22T12:12:10.431Z,33.42
2018-07-22T12:13:10.630Z,33.96
2018-07-22T12:14:34.957Z,34.67
2018-07-22T12:15:33.121Z,34.83
2018-07-22T12:16:55.664Z,35.44
2018-07-22T12:18:39.206Z,36.30
2018-07-22T12:19:40.315Z,36.05
2018-07-22T12:20:40.287Z,35.44
2018-07-22T12:22:23.142Z,34.77
2018-07-22T12:23:24.225Z,34.96
2018-07-22T12:24:23.784Z,34.89
2018-07-22T12:25:23.564Z,34.32
2018-07-22T12:26:24.612Z,33.84
2018-07-22T12:27:24.108Z,33.53
2018-07-22T12:28:24.286Z,34.23
2018-07-22T12:29:24.332Z,34.80
2018-07-22T12:30:23.174Z,35.04
2018-07-22T12:31:24.244Z,35.39
2018-07-22T12:32:45.956Z,35.86
2018-07-22T12:33:45.647Z,36.00
2018-07-22T12:34:46.905Z,36.16
2018-07-22T12:35:45.940Z,36.42
2018-07-22T12:36:46.433Z,36.28
2018-07-22T12:38:28.675Z,36.55
2018-07-22T12:39:29.388Z,36.81
2018-07-22T12:40:29.595Z,37.23
2018-07-22T12:41:50.872Z,37.71
2018-07-22T12:42:51.417Z,37.99
2018-07-22T12:43:51.136Z,37.97
2018-07-22T12:44:50.799Z,37.82
2018-07-22T12:45:50.506Z,37.72
2018-07-22T12:46:51.561Z,37.42
2018-07-22T12:48:16.302Z,36.43
2018-07-22T12:49:37.435Z,35.78
2018-07-22T12:50:38.008Z,35.22
2018-07-22T12:51:38.621Z,34.66
2018-07-22T12:52:59.578Z,34.33
2018-07-22T12:54:00.466Z,33.95
2018-07-22T12:55:21.587Z,34.25
2018-07-22T12:56:23.837Z,34.83
2018-07-22T12:57:23.255Z,35.56
2018-07-22T12:58:23.519Z,36.23
2018-07-22T12:59:22.713Z,36.31
2018-07-22T13:00:46.727Z,35.73
2018-07-22T13:01:47.090Z,35.73
2018-07-22T13:02:46.783Z,36.18
2018-07-22T13:03:46.755Z,36.43
2018-07-22T13:04:49.312Z,36.55
2018-07-22T13:05:45.938Z,36.23
2018-07-22T13:06:46.455Z,35.83
2018-07-22T13:07:46.291Z,35.19
2018-07-22T13:08:46.017Z,34.85
2018-07-22T13:09:47.144Z,34.62
2018-07-22T13:10:45.685Z,34.58
2018-07-22T13:11:47.232Z,34.35
2018-07-22T13:12:46.327Z,33.98
2018-07-22T13:14:07.778Z,33.23
2018-07-22T13:15:09.673Z,32.92
2018-07-22T13:16:31.994Z,32.68
2018-07-22T13:17:54.247Z,32.38
2018-07-22T13:18:54.907Z,32.18
2018-07-22T13:19:54.768Z,32.00
2018-07-22T13:20:54.323Z,31.84
2018-07-22T13:21:55.348Z,31.49
2018-07-22T13:22:55.304Z,31.12
2018-07-22T13:23:55.011Z,30.88
2018-07-22T13:24:55.048Z,30.77
2018-07-22T13:26:16.382Z,30.63
2018-07-22T13:27:16.047Z,30.62
2018-07-22T13:28:17.036Z,30.65
2018-07-22T13:29:17.367Z,30.62
2018-07-22T13:30:17.908Z,30.62
2018-07-22T13:31:18.207Z,30.55
2018-07-22T13:32:16.678Z,30.48
2018-07-22T13:33:16.395Z,30.44
2018-07-22T13:34:37.313Z,30.30
2018-07-22T13:35:38.370Z,30.23
2018-07-22T13:36:37.917Z,30.23
2018-07-22T13:37:37.920Z,30.32
2018-07-22T13:38:37.579Z,30.61
2018-07-22T13:39:38.236Z,30.91
2018-07-22T13:40:39.987Z,31.22
2018-07-22T13:41:59.380Z,31.70
2018-07-22T13:43:21.707Z,32.01
2018-07-22T13:44:22.943Z,32.18
2018-07-22T13:45:43.994Z,32.51